createdAt,value
2019-05-26T00:00:59.099Z,50.05
2019-05-26T00:03:27.088Z,50.03
2019-05-26T00:05:55.089Z,49.97
2019-05-26T00:08:23.148Z,49.93
2019-05-26T00:10:51.285Z,49.91
2019-05-26T00:13:19.370Z,49.89
2019-05-26T00:15:47.469Z,49.89
2019-05-26T00:18:15.626Z,49.88
2019-05-26T00:20:44.096Z,49.92
2019-05-26T00:23:12.078Z,49.84
2019-05-26T00:25:40.160Z,49.93
2019-05-26T00:28:08.143Z,49.87
2019-05-26T00:30:36.302Z,49.84
2019-05-26T00:33:04.354Z,49.88
2019-05-26T00:35:32.370Z,49.82
2019-05-26T00:38:00.355Z,49.85
2019-05-26T00:40:29.097Z,49.86
2019-05-26T00:42:57.149Z,49.84
2019-05-26T00:45:25.218Z,49.76
2019-05-26T00:47:53.225Z,49.77
2019-05-26T00:50:21.307Z,49.77
2019-05-26T00:52:49.286Z,49.80
2019-05-26T00:55:17.358Z,49.74
2019-05-26T00:57:45.333Z,49.68
2019-05-26T01:00:13.347Z,49.71
2019-05-26T01:02:41.410Z,49.75
2019-05-26T01:05:09.535Z,49.64
2019-05-26T01:07:37.655Z,49.64
2019-05-26T01:10:05.926Z,49.52
2019-05-26T01:12:33.988Z,49.70
2019-05-26T01:15:01.999Z,49.61
2019-05-26T01:17:30.213Z,49.61
2019-05-26T01:19:58.214Z,49.64
2019-05-26T01:22:26.274Z,49.65
2019-05-26T01:24:54.352Z,49.58
2019-05-26T01:27:22.426Z,49.67
2019-05-26T01:29:50.478Z,49.47
2019-05-26T01:32:18.489Z,49.59
2019-05-26T01:34:46.536Z,49.55
2019-05-26T01:37:14.605Z,49.61
2019-05-26T01:39:42.739Z,49.53
2019-05-26T01:42:10.746Z,49.54
2019-05-26T01:44:38.879Z,49.59
2019-05-26T01:47:06.922Z,49.58
2019-05-26T01:49:35.063Z,49.50
2019-05-26T01:52:03.058Z,49.44
2019-05-26T01:54:31.192Z,49.50
2019-05-26T01:56:59.203Z,49.47
2019-05-26T01:59:27.273Z,49.54
2019-05-26T02:01:58.545Z,49.55
2019-05-26T02:04:25.012Z,49.53
2019-05-26T02:06:53.037Z,49.47
2019-05-26T02:09:21.023Z,49.48
2019-05-26T02:11:49.178Z,49.48
2019-05-26T02:14:17.236Z,49.53
2019-05-26T02:16:58.997Z,49.35
2019-05-26T02:19:14.936Z,49.45
2019-05-26T02:21:43.002Z,49.43
2019-05-26T02:24:11.055Z,49.45
2019-05-26T02:26:39.230Z,49.41
2019-05-26T02:29:07.283Z,49.37
2019-05-26T02:31:35.372Z,49.40
2019-05-26T02:34:03.435Z,49.44
2019-05-26T02:36:31.515Z,49.42
2019-05-26T02:39:02.486Z,49.35
2019-05-26T02:41:29.370Z,49.30
2019-05-26T02:43:57.501Z,49.40
2019-05-26T02:46:25.543Z,49.32
2019-05-26T02:48:53.535Z,49.33
2019-05-26T02:51:21.747Z,49.31
2019-05-26T02:53:49.685Z,49.36
2019-05-26T02:56:17.688Z,49.38
2019-05-26T02:58:45.741Z,49.29
2019-05-26T03:01:13.834Z,49.27
2019-05-26T03:03:41.820Z,49.28
2019-05-26T03:06:09.937Z,49.27
2019-05-26T03:08:37.951Z,49.14
2019-05-26T03:11:05.948Z,49.27
2019-05-26T03:13:35.099Z,49.31
2019-05-26T03:16:03.127Z,49.37
2019-05-26T03:18:31.208Z,49.22
2019-05-26T03:20:59.199Z,49.31
2019-05-26T03:23:27.811Z,49.27
2019-05-26T03:25:55.873Z,49.29
2019-05-26T03:28:23.875Z,49.31
2019-05-26T03:30:52.029Z,49.33
2019-05-26T03:33:20.105Z,49.37
2019-05-26T03:35:48.295Z,49.24
2019-05-26T03:38:16.292Z,49.28
2019-05-26T03:40:44.347Z,49.32
2019-05-26T03:43:12.508Z,49.33
2019-05-26T03:46:14.694Z,49.38
2019-05-26T03:48:42.714Z,49.32
2019-05-26T03:51:10.795Z,49.31
2019-05-26T03:53:38.891Z,49.28
2019-05-26T03:56:06.931Z,49.33
2019-05-26T03:58:35.106Z,49.29
2019-05-26T04:01:03.183Z,49.30
2019-05-26T04:03:31.189Z,49.30
2019-05-26T04:05:59.247Z,49.33
2019-05-26T04:08:27.248Z,49.28
2019-05-26T04:11:14.345Z,49.28
2019-05-26T04:13:42.347Z,49.32
2019-05-26T04:16:18.215Z,49.29
2019-05-26T04:18:46.298Z,49.36
2019-05-26T04:21:14.374Z,49.37
2019-05-26T04:23:42.491Z,49.37
2019-05-26T04:26:10.442Z,49.38
2019-05-26T04:28:38.440Z,49.42
2019-05-26T04:31:06.600Z,49.37
2019-05-26T04:33:34.614Z,49.38
2019-05-26T04:36:02.673Z,49.40
2019-05-26T04:38:30.681Z,49.31
2019-05-26T04:40:58.639Z,49.35
2019-05-26T04:43:26.733Z,49.29
2019-05-26T04:45:54.710Z,49.38
2019-05-26T04:48:22.741Z,49.37
2019-05-26T04:50:50.802Z,49.35
2019-05-26T04:53:18.893Z,49.46
2019-05-26T04:55:46.952Z,49.46
2019-05-26T04:58:14.971Z,49.46
2019-05-26T05:00:43.027Z,49.43
2019-05-26T05:03:11.098Z,49.55
2019-05-26T05:05:39.147Z,49.59
2019-05-26T05:08:07.241Z,49.60
2019-05-26T05:10:42.179Z,49.61
2019-05-26T05:13:04.950Z,49.58
2019-05-26T05:15:32.922Z,49.63
2019-05-26T05:18:00.934Z,49.68
2019-05-26T05:20:28.907Z,49.64
2019-05-26T05:22:56.979Z,49.67
2019-05-26T05:25:24.975Z,49.68
2019-05-26T05:27:52.998Z,49.71
2019-05-26T05:30:21.056Z,49.72
2019-05-26T05:32:49.215Z,49.70
2019-05-26T05:35:17.264Z,49.71
2019-05-26T05:37:45.322Z,49.70
2019-05-26T05:40:13.499Z,49.65
2019-05-26T05:42:41.547Z,49.61
2019-05-26T05:45:09.630Z,49.50
2019-05-26T05:47:37.727Z,49.45
2019-05-26T05:50:06.089Z,49.40
2019-05-26T05:52:34.106Z,49.39
2019-05-26T05:55:02.290Z,49.34
2019-05-26T05:57:30.280Z,49.30
2019-05-26T05:59:58.308Z,49.26
2019-05-26T06:02:26.342Z,49.22
2019-05-26T06:04:54.384Z,49.13
2019-05-26T06:07:22.426Z,49.09
2019-05-26T06:09:50.514Z,49.10
2019-05-26T06:12:18.608Z,49.06
2019-05-26T06:14:46.701Z,49.05
2019-05-26T06:17:14.684Z,49.13
2019-05-26T06:19:46.458Z,49.11
2019-05-26T06:22:14.430Z,49.07
2019-05-26T06:24:42.426Z,49.07
2019-05-26T06:27:10.414Z,49.08
2019-05-26T06:29:38.497Z,49.14
2019-05-26T06:32:06.712Z,49.15
2019-05-26T06:34:34.966Z,49.14
2019-05-26T06:37:03.028Z,49.16
2019-05-26T06:39:31.032Z,49.04
2019-05-26T06:41:59.027Z,48.91
2019-05-26T06:44:27.782Z,48.87
2019-05-26T06:46:56.155Z,48.78
2019-05-26T06:49:24.190Z,48.66
2019-05-26T06:51:52.324Z,48.60
2019-05-26T06:54:20.322Z,48.52
2019-05-26T06:56:48.344Z,48.51
2019-05-26T06:59:16.532Z,48.51
2019-05-26T07:01:44.634Z,48.52
2019-05-26T07:04:12.683Z,48.50
2019-05-26T07:06:40.730Z,48.51
2019-05-26T07:09:08.745Z,48.48
2019-05-26T07:11:54.007Z,48.51
2019-05-26T07:14:06.474Z,48.57
2019-05-26T07:16:38.547Z,48.59
2019-05-26T07:19:04.226Z,48.49
2019-05-26T07:21:32.255Z,48.45
2019-05-26T07:24:00.271Z,48.45
2019-05-26T07:26:28.339Z,48.48
2019-05-26T07:28:56.347Z,48.54
2019-05-26T07:31:24.334Z,48.55
2019-05-26T07:33:52.367Z,48.57
2019-05-26T07:36:20.421Z,48.57
2019-05-26T07:41:35.726Z,48.54
2019-05-26T07:46:37.357Z,48.50
2019-05-26T07:49:05.444Z,48.48
2019-05-26T07:51:33.487Z,48.49
2019-05-26T07:54:01.555Z,48.53
2019-05-26T07:56:29.639Z,48.57
2019-05-26T07:58:57.698Z,48.59
2019-05-26T08:01:44.982Z,48.62
2019-05-26T08:04:12.987Z,48.66
2019-05-26T08:06:40.978Z,48.67
2019-05-26T08:09:09.279Z,48.71
2019-05-26T08:11:37.282Z,48.75
2019-05-26T08:14:05.485Z,48.76
2019-05-26T08:16:33.507Z,48.78
2019-05-26T08:19:01.498Z,48.79
2019-05-26T08:21:29.590Z,48.79
2019-05-26T08:23:57.572Z,48.81
2019-05-26T08:26:25.567Z,48.84
2019-05-26T08:28:55.069Z,48.87
2019-05-26T08:31:23.362Z,48.87
2019-05-26T08:33:51.420Z,48.92
2019-05-26T08:36:19.426Z,48.95
2019-05-26T08:38:47.410Z,48.95
2019-05-26T08:41:15.503Z,48.96
2019-05-26T08:43:43.477Z,48.97
2019-05-26T08:46:11.534Z,48.98
2019-05-26T08:48:39.962Z,49.00
2019-05-26T08:51:08.106Z,48.98
2019-05-26T08:53:36.243Z,48.97
2019-05-26T08:56:04.270Z,48.94
2019-05-26T08:58:32.246Z,48.92
2019-05-26T09:01:00.249Z,48.92
2019-05-26T09:03:29.059Z,48.92
2019-05-26T09:05:57.059Z,48.90
2019-05-26T09:08:25.263Z,48.84
2019-05-26T09:10:53.297Z,48.81
2019-05-26T09:13:21.286Z,48.80
2019-05-26T09:15:49.338Z,48.76
2019-05-26T09:18:17.330Z,48.76
2019-05-26T09:20:45.336Z,48.73
2019-05-26T09:23:13.456Z,48.72
2019-05-26T09:25:41.567Z,48.69
2019-05-26T09:28:09.758Z,48.67
2019-05-26T09:30:37.845Z,48.65
2019-05-26T09:33:05.903Z,48.63
2019-05-26T09:35:34.014Z,48.60
2019-05-26T09:38:02.062Z,48.59
2019-05-26T09:40:30.138Z,48.59
2019-05-26T09:42:58.214Z,48.62
2019-05-26T09:45:26.293Z,48.59
2019-05-26T09:47:54.450Z,48.57
2019-05-26T09:50:22.450Z,48.55
2019-05-26T09:52:50.498Z,48.52
2019-05-26T09:55:18.483Z,48.47
2019-05-26T09:57:46.514Z,48.41
2019-05-26T10:00:16.260Z,48.38
2019-05-26T10:02:44.359Z,48.25
2019-05-26T10:05:12.366Z,48.20
2019-05-26T10:07:40.411Z,48.18
2019-05-26T10:10:08.417Z,48.26
2019-05-26T10:12:36.567Z,48.34
2019-05-26T10:15:06.398Z,48.42
2019-05-26T10:17:34.428Z,48.51
2019-05-26T10:20:02.434Z,48.59
2019-05-26T10:22:30.425Z,48.64
2019-05-26T10:24:58.399Z,48.66
2019-05-26T10:27:26.563Z,48.69
2019-05-26T10:29:54.542Z,48.72
2019-05-26T10:32:22.625Z,48.76
2019-05-26T10:34:50.674Z,48.76
2019-05-26T10:37:18.683Z,48.76
2019-05-26T10:39:46.668Z,48.73
2019-05-26T10:42:14.746Z,48.65
2019-05-26T10:44:42.719Z,48.68
2019-05-26T10:47:10.751Z,48.67
2019-05-26T10:49:38.999Z,48.73
2019-05-26T10:52:07.063Z,48.78
2019-05-26T10:54:35.032Z,48.80
2019-05-26T10:57:03.040Z,48.80
2019-05-26T10:59:31.353Z,48.80
2019-05-26T11:02:11.026Z,48.78
2019-05-26T11:04:29.129Z,48.78
2019-05-26T11:06:57.121Z,48.77
2019-05-26T11:09:25.267Z,48.74
2019-05-26T11:11:53.282Z,48.78
2019-05-26T11:14:21.261Z,48.79
2019-05-26T11:16:49.295Z,48.83
2019-05-26T11:19:17.354Z,48.84
2019-05-26T11:21:45.408Z,48.84
2019-05-26T11:24:13.420Z,48.83
2019-05-26T11:26:41.484Z,48.84
2019-05-26T11:29:09.459Z,48.83
2019-05-26T11:31:37.553Z,48.86
2019-05-26T11:34:05.557Z,48.88
2019-05-26T11:36:33.689Z,48.88
2019-05-26T11:39:01.658Z,48.86
2019-05-26T11:41:30.122Z,48.82
2019-05-26T11:43:58.141Z,48.83
2019-05-26T11:46:26.238Z,48.83
2019-05-26T11:48:54.210Z,48.87
2019-05-26T11:51:22.357Z,48.88
2019-05-26T11:53:50.414Z,48.90
2019-05-26T11:56:18.411Z,48.92
2019-05-26T11:58:46.422Z,48.95
2019-05-26T12:01:14.466Z,48.98
2019-05-26T12:03:42.475Z,49.00
2019-05-26T12:06:10.459Z,49.02
2019-05-26T12:08:38.536Z,49.03
2019-05-26T12:11:06.511Z,49.06
2019-05-26T12:13:36.664Z,49.06
2019-05-26T12:16:04.223Z,49.07
2019-05-26T12:18:32.229Z,49.06
2019-05-26T12:21:00.390Z,49.08
2019-05-26T12:23:28.554Z,49.09
2019-05-26T12:25:56.533Z,49.10
2019-05-26T12:28:24.603Z,49.11
2019-05-26T12:30:52.591Z,49.05
2019-05-26T12:33:20.589Z,49.05
2019-05-26T12:35:48.583Z,49.06
2019-05-26T12:38:16.667Z,49.07
2019-05-26T12:40:44.710Z,49.05
2019-05-26T12:43:12.792Z,49.03
2019-05-26T12:45:40.802Z,48.99
2019-05-26T12:48:08.900Z,48.97
2019-05-26T12:50:37.027Z,48.92
2019-05-26T12:53:05.637Z,48.90
2019-05-26T12:55:33.606Z,48.84
2019-05-26T12:58:01.813Z,48.80
2019-05-26T13:00:47.072Z,48.79
2019-05-26T13:02:59.752Z,48.77
2019-05-26T13:05:27.738Z,48.75
2019-05-26T13:07:55.814Z,48.74
2019-05-26T13:10:23.835Z,48.71
2019-05-26T13:12:51.930Z,48.70
2019-05-26T13:15:19.910Z,48.67
2019-05-26T13:17:47.927Z,48.62
2019-05-26T13:20:15.907Z,48.58
2019-05-26T13:22:44.048Z,48.59
2019-05-26T13:25:12.108Z,48.58
2019-05-26T13:27:40.141Z,48.54
2019-05-26T13:30:08.408Z,48.52
2019-05-26T13:32:36.398Z,48.48
2019-05-26T13:35:04.534Z,48.46
2019-05-26T13:37:32.594Z,48.42
2019-05-26T13:40:00.695Z,48.40
2019-05-26T13:42:28.778Z,48.35
2019-05-26T13:44:56.794Z,48.30
2019-05-26T13:47:26.408Z,48.28
2019-05-26T13:49:54.447Z,48.22
2019-05-26T13:52:22.419Z,48.25
2019-05-26T13:54:50.479Z,48.19
2019-05-26T13:57:18.451Z,48.17
2019-05-26T13:59:46.527Z,48.15
2019-05-26T14:02:14.495Z,48.17
2019-05-26T14:04:42.506Z,48.15
2019-05-26T14:07:10.546Z,48.13
2019-05-26T14:09:38.706Z,48.12
2019-05-26T14:12:06.665Z,48.11
2019-05-26T14:14:34.679Z,48.10
2019-05-26T14:17:02.742Z,48.08
2019-05-26T14:19:30.812Z,48.04
2019-05-26T14:21:58.873Z,48.02
2019-05-26T14:24:26.901Z,47.95
2019-05-26T14:26:54.883Z,47.96
2019-05-26T14:29:22.938Z,48.00
2019-05-26T14:31:52.877Z,47.93
2019-05-26T14:34:20.642Z,47.96
2019-05-26T14:36:48.691Z,47.98
2019-05-26T14:39:16.795Z,47.98
2019-05-26T14:41:44.785Z,47.98
2019-05-26T14:44:12.784Z,47.94
2019-05-26T14:46:40.818Z,47.96
2019-05-26T14:49:08.807Z,47.97
2019-05-26T14:51:36.770Z,47.96
2019-05-26T14:54:04.778Z,47.84
2019-05-26T14:56:32.845Z,47.83
2019-05-26T14:59:00.963Z,47.82
2019-05-26T15:01:29.216Z,47.79
2019-05-26T15:03:57.346Z,47.76
2019-05-26T15:06:25.319Z,47.77
2019-05-26T15:08:53.319Z,47.70
2019-05-26T15:11:21.381Z,47.66
2019-05-26T15:13:49.377Z,47.64
2019-05-26T15:16:17.418Z,47.61
2019-05-26T15:18:45.435Z,47.63
2019-05-26T15:21:13.433Z,47.65
2019-05-26T15:23:41.430Z,47.63
2019-05-26T15:26:09.406Z,47.66
2019-05-26T15:28:37.578Z,47.56
2019-05-26T15:31:05.621Z,47.68
2019-05-26T15:33:33.606Z,47.69
2019-05-26T15:36:01.639Z,47.73
2019-05-26T15:38:42.034Z,47.75
2019-05-26T15:40:59.652Z,47.80
2019-05-26T15:43:28.074Z,47.79
2019-05-26T15:45:56.078Z,47.80
2019-05-26T15:48:24.161Z,47.84
2019-05-26T15:50:52.163Z,47.94
2019-05-26T15:53:20.132Z,47.95
2019-05-26T15:55:48.210Z,48.00
2019-05-26T15:58:16.265Z,48.09
2019-05-26T16:00:44.346Z,48.17
2019-05-26T16:03:12.494Z,48.22
2019-05-26T16:05:40.527Z,48.26
2019-05-26T16:08:08.526Z,48.35
2019-05-26T16:10:36.531Z,48.38
2019-05-26T16:13:04.583Z,48.49
2019-05-26T16:15:32.728Z,48.56
2019-05-26T16:18:00.786Z,48.63
2019-05-26T16:20:28.876Z,48.67
2019-05-26T16:22:56.848Z,48.77
2019-05-26T16:25:24.839Z,48.85
2019-05-26T16:27:52.885Z,48.92
2019-05-26T16:30:20.958Z,48.99
2019-05-26T16:32:48.931Z,49.04
2019-05-26T16:35:17.010Z,49.11
2019-05-26T16:37:45.055Z,49.17
2019-05-26T16:40:13.146Z,49.25
2019-05-26T16:42:41.191Z,49.27
2019-05-26T16:45:09.274Z,49.32
2019-05-26T16:47:37.355Z,49.34
2019-05-26T16:50:05.539Z,49.36
2019-05-26T16:52:33.518Z,49.40
2019-05-26T16:55:01.580Z,49.46
2019-05-26T16:57:29.628Z,49.49
2019-05-26T16:59:57.625Z,49.51
2019-05-26T17:02:25.602Z,49.55
2019-05-26T17:04:53.844Z,49.60
2019-05-26T17:07:21.927Z,49.59
2019-05-26T17:09:49.966Z,49.64
2019-05-26T17:12:17.938Z,49.72
2019-05-26T17:14:45.965Z,49.73
2019-05-26T17:17:15.390Z,49.71
2019-05-26T17:19:43.607Z,49.75
2019-05-26T17:22:11.930Z,49.78
2019-05-26T17:24:39.975Z,49.81
2019-05-26T17:27:07.971Z,49.83
2019-05-26T17:29:35.947Z,49.86
2019-05-26T17:32:04.014Z,49.85
2019-05-26T17:34:31.992Z,49.83
2019-05-26T17:37:00.062Z,49.82
2019-05-26T17:39:28.051Z,49.78
2019-05-26T17:41:56.128Z,49.80
2019-05-26T17:44:24.249Z,49.78
2019-05-26T17:46:52.287Z,49.84
2019-05-26T17:49:20.268Z,49.83
2019-05-26T17:51:48.272Z,49.88
2019-05-26T17:54:16.242Z,49.93
2019-05-26T17:56:44.323Z,49.95
2019-05-26T17:59:12.386Z,50.00
2019-05-26T18:01:40.459Z,50.10
2019-05-26T18:04:08.511Z,50.14
2019-05-26T18:06:36.584Z,50.12
2019-05-26T18:09:05.486Z,50.15
2019-05-26T18:11:33.482Z,50.19
2019-05-26T18:14:01.539Z,50.22
2019-05-26T18:16:29.526Z,50.22
2019-05-26T18:18:57.572Z,50.20
2019-05-26T18:21:25.558Z,50.27
2019-05-26T18:23:53.546Z,50.28
2019-05-26T18:26:21.650Z,50.31
2019-05-26T18:28:49.726Z,50.37
2019-05-26T18:31:17.762Z,50.41
2019-05-26T18:33:45.866Z,50.44
2019-05-26T18:36:14.064Z,50.44
2019-05-26T18:38:42.342Z,50.48
2019-05-26T18:41:10.414Z,50.52
2019-05-26T18:43:38.551Z,50.54
2019-05-26T18:46:06.706Z,50.55
2019-05-26T18:48:34.711Z,50.58
2019-05-26T18:51:02.711Z,50.64
2019-05-26T18:53:30.691Z,50.68
2019-05-26T18:55:58.763Z,50.70
2019-05-26T18:58:26.814Z,50.74
2019-05-26T19:00:54.889Z,50.78
2019-05-26T19:03:22.941Z,50.79
2019-05-26T19:05:51.110Z,50.81
2019-05-26T19:08:19.098Z,50.84
2019-05-26T19:10:47.127Z,50.86
2019-05-26T19:13:15.258Z,50.90
2019-05-26T19:15:43.494Z,50.91
2019-05-26T19:18:19.784Z,50.94
2019-05-26T19:20:41.514Z,50.98
2019-05-26T19:23:09.494Z,51.00
2019-05-26T19:25:56.607Z,51.03
2019-05-26T19:28:24.678Z,51.06
2019-05-26T19:30:52.656Z,51.11
2019-05-26T19:33:20.655Z,51.14
2019-05-26T19:35:48.702Z,51.18
2019-05-26T19:38:16.787Z,51.19
2019-05-26T19:40:44.758Z,51.23
2019-05-26T19:43:12.784Z,51.25
2019-05-26T19:45:40.834Z,51.27
2019-05-26T19:48:09.020Z,51.28
2019-05-26T19:50:37.125Z,51.32
2019-05-26T19:53:05.249Z,51.35
2019-05-26T19:55:33.231Z,51.37
2019-05-26T19:58:01.304Z,51.39
2019-05-26T20:00:29.374Z,51.41
2019-05-26T20:02:58.495Z,51.43
2019-05-26T20:05:26.723Z,51.46
2019-05-26T20:07:54.792Z,51.49
2019-05-26T20:10:23.139Z,51.52
2019-05-26T20:12:51.292Z,51.57
2019-05-26T20:15:19.302Z,51.59
2019-05-26T20:17:47.409Z,51.62
2019-05-26T20:20:15.819Z,51.65
2019-05-26T20:22:43.862Z,51.69
2019-05-26T20:25:11.911Z,51.71
2019-05-26T20:27:59.036Z,51.73
2019-05-26T20:30:27.154Z,51.71
2019-05-26T20:32:55.365Z,51.74
2019-05-26T20:35:23.294Z,51.77
2019-05-26T20:37:51.444Z,51.82
2019-05-26T20:40:19.503Z,51.86
2019-05-26T20:42:47.591Z,51.86
2019-05-26T20:45:15.758Z,51.86
2019-05-26T20:47:43.839Z,51.87
2019-05-26T20:50:27.708Z,51.86
2019-05-26T20:52:41.568Z,51.94
2019-05-26T20:55:09.590Z,51.95
2019-05-26T20:57:37.677Z,51.98
2019-05-26T21:00:06.060Z,51.98
2019-05-26T21:02:34.463Z,51.98
2019-05-26T21:05:02.607Z,52.00
2019-05-26T21:07:30.562Z,52.03
2019-05-26T21:09:58.734Z,52.02
2019-05-26T21:12:27.015Z,52.04
2019-05-26T21:14:55.066Z,52.07
2019-05-26T21:17:23.207Z,52.07
2019-05-26T21:19:51.179Z,52.09
2019-05-26T21:22:19.174Z,52.10
2019-05-26T21:24:47.555Z,52.10
2019-05-26T21:27:15.849Z,52.08
2019-05-26T21:29:43.874Z,52.09
2019-05-26T21:32:11.918Z,52.13
2019-05-26T21:34:40.877Z,52.12
2019-05-26T21:37:08.871Z,52.14
2019-05-26T21:39:36.955Z,52.16
2019-05-26T21:42:04.954Z,52.16
2019-05-26T21:44:32.958Z,52.16
2019-05-26T21:47:01.030Z,52.14
2019-05-26T21:49:29.114Z,52.17
2019-05-26T21:51:57.170Z,52.16
2019-05-26T21:54:25.216Z,52.18
2019-05-26T21:56:53.298Z,52.18
2019-05-26T21:59:21.507Z,52.19
2019-05-26T22:01:49.588Z,52.18
2019-05-26T22:04:17.733Z,52.22
2019-05-26T22:06:45.807Z,52.22
2019-05-26T22:09:13.887Z,52.21
2019-05-26T22:11:41.950Z,52.24
2019-05-26T22:14:09.994Z,52.25
2019-05-26T22:16:37.970Z,52.26
2019-05-26T22:19:05.986Z,52.29
2019-05-26T22:21:34.040Z,52.31
2019-05-26T22:24:02.173Z,52.32
2019-05-26T22:26:30.235Z,52.32
2019-05-26T22:28:58.305Z,52.33
2019-05-26T22:31:26.282Z,52.34
2019-05-26T22:33:54.298Z,52.33
2019-05-26T22:36:22.279Z,52.33
2019-05-26T22:38:50.430Z,52.32
2019-05-26T22:41:18.471Z,52.31
2019-05-26T22:43:46.467Z,52.31
2019-05-26T22:46:14.530Z,52.26
2019-05-26T22:48:42.735Z,52.27
2019-05-26T22:51:10.783Z,52.27
2019-05-26T22:53:38.867Z,52.28
2019-05-26T22:56:06.846Z,52.32
2019-05-26T22:58:34.922Z,52.32
2019-05-26T23:03:50.012Z,52.36
2019-05-26T23:06:18.061Z,52.38
2019-05-26T23:08:46.107Z,52.45
2019-05-26T23:11:14.158Z,52.47
2019-05-26T23:13:42.143Z,52.49
2019-05-26T23:16:10.106Z,52.51
2019-05-26T23:18:38.246Z,52.56
2019-05-26T23:21:06.238Z,52.57
2019-05-26T23:23:34.229Z,52.56
2019-05-26T23:26:02.194Z,52.57
2019-05-26T23:28:30.250Z,52.59
2019-05-26T23:30:58.382Z,52.64
2019-05-26T23:33:26.438Z,52.67
2019-05-26T23:35:54.608Z,52.67
2019-05-26T23:38:22.587Z,52.65
2019-05-26T23:40:50.641Z,52.65
2019-05-26T23:43:18.694Z,52.65
2019-05-26T23:45:46.693Z,52.68
2019-05-26T23:48:14.834Z,52.67
2019-05-26T23:50:43.174Z,52.68
2019-05-26T23:53:11.268Z,52.68
2019-05-26T23:55:39.385Z,52.68
2019-05-26T23:58:07.358Z,52.64
